Time;durP1;ratioP1;P1;durP2;ratioP2;P2;SDS_P1;SDS_P2;PMS_P1;PMS_P2;Temp;Humidity;BMP_temperature;BMP_pressure;BME280_temperature;BME280_humidity;BME280_pressure;Samples;Min_cycle;Max_cycle;Signal;HPM_P1;HPM_P2
2022/07/27 00:02:27;;;;;;;4.23;3.17;;;;;;;20.15;100.00;99550.19;6281787;28;20124;-71
2022/07/27 00:05:28;;;;;;;7.73;2.97;;;;;;;20.09;100.00;99549.03;6298387;28;20036;-71
2022/07/27 00:08:31;;;;;;;3.87;3.37;;;;;;;20.04;100.00;99545.25;6298292;28;20506;-71
2022/07/27 00:11:33;;;;;;;4.20;3.50;;;;;;;19.99;100.00;99548.38;6298931;28;20098;-74
2022/07/27 00:14:34;;;;;;;4.23;3.37;;;;;;;19.95;100.00;99555.00;6281088;28;20044;-75
2022/07/27 00:17:35;;;;;;;3.90;2.97;;;;;;;20.07;100.00;99553.66;6299315;28;20098;-71
2022/07/27 00:20:41;;;;;;;3.43;3.13;;;;;;;19.87;100.00;99553.19;6299226;28;20403;-72
2022/07/27 00:23:42;;;;;;;3.72;3.17;;;;;;;19.99;100.00;99555.50;6281650;28;20364;-74
2022/07/27 00:26:45;;;;;;;4.30;3.10;;;;;;;19.82;100.00;99562.63;6280632;28;20450;-74
2022/07/27 00:29:49;;;;;;;5.50;3.97;;;;;;;19.82;100.00;99552.84;6297290;28;20046;-74
2022/07/27 00:32:52;;;;;;;4.57;4.18;;;;;;;19.67;100.00;99547.38;6297570;28;20053;-71
2022/07/27 00:35:53;;;;;;;5.03;4.00;;;;;;;19.73;100.00;99559.16;6281278;28;20036;-74
2022/07/27 00:38:55;;;;;;;5.22;4.47;;;;;;;19.66;100.00;99563.41;6298293;28;20044;-74
2022/07/27 00:41:56;;;;;;;6.47;4.77;;;;;;;19.63;100.00;99559.28;6297832;28;20041;-71
2022/07/27 00:44:57;;;;;;;5.72;4.95;;;;;;;19.49;100.00;99563.38;6297790;28;20045;-71
2022/07/27 00:47:59;;;;;;;5.22;4.72;;;;;;;19.60;100.00;99558.75;6330149;28;20406;-71
2022/07/27 00:50:59;;;;;;;6.40;5.27;;;;;;;19.64;100.00;99558.28;6296356;28;20060;-71
2022/07/27 00:54:00;;;;;;;5.60;5.00;;;;;;;19.61;100.00;99553.31;6279869;28;20036;-74
2022/07/27 00:57:02;;;;;;;7.73;5.57;;;;;;;19.44;100.00;99557.75;6280093;28;20048;-72
2022/07/27 01:00:07;;;;;;;6.03;4.93;;;;;;;19.28;100.00;99566.47;6280520;28;20052;-75
2022/07/27 01:03:08;;;;;;;6.07;5.47;;;;;;;19.39;100.00;99561.88;6296820;28;20044;-74
2022/07/27 01:06:09;;;;;;;6.53;4.97;;;;;;;19.44;100.00;99570.19;6296488;28;20109;-74
2022/07/27 01:12:31;;;;;;;8.70;4.75;;;;;;;19.30;100.00;99567.16;6296582;28;20049;-74
2022/07/27 01:15:33;;;;;;;4.50;3.90;;;;;;;19.36;100.00;99570.97;6296461;28;20044;-74
2022/07/27 01:18:37;;;;;;;4.25;3.30;;;;;;;19.19;100.00;99570.13;6296271;28;20052;-70
2022/07/27 01:21:38;;;;;;;3.75;3.10;;;;;;;19.21;98.48;99576.06;6296365;28;20060;-74
2022/07/27 01:24:41;;;;;;;3.60;2.60;;;;;;;19.17;93.88;99573.88;6279666;28;20074;-74
2022/07/27 01:27:42;;;;;;;4.22;2.78;;;;;;;19.00;90.82;99583.56;6279685;28;20483;-70
2022/07/27 01:30:43;;;;;;;4.07;2.40;;;;;;;19.08;88.25;99580.97;6263088;28;20131;-74
2022/07/27 01:33:49;;;;;;;3.15;2.40;;;;;;;19.00;87.48;99576.47;6297344;28;20036;-75
2022/07/27 01:36:50;;;;;;;4.28;2.63;;;;;;;19.04;84.42;99572.53;6295933;28;20525;-71
2022/07/27 01:39:52;;;;;;;3.80;2.40;;;;;;;18.98;83.41;99570.50;6313158;28;20060;-74
2022/07/27 01:42:53;;;;;;;3.72;2.50;;;;;;;18.96;81.64;99571.66;6296071;28;20041;-74
2022/07/27 01:45:54;;;;;;;3.70;2.08;;;;;;;18.90;81.34;99578.41;6295578;28;20049;-71
2022/07/27 01:48:55;;;;;;;4.80;2.10;;;;;;;18.80;81.27;99588.28;6278007;28;20048;-71
2022/07/27 01:51:59;;;;;;;3.97;2.00;;;;;;;18.72;81.54;99591.69;6261818;28;20056;-74
2022/07/27 01:55:00;;;;;;;3.38;2.30;;;;;;;18.60;81.68;99588.50;6278733;28;20063;-74
2022/07/27 01:58:04;;;;;;;3.47;2.33;;;;;;;18.56;81.69;99591.59;6295811;28;20532;-74
2022/07/27 02:01:06;;;;;;;3.72;2.08;;;;;;;18.54;80.73;99594.41;6263287;28;20122;-71
2022/07/27 02:04:07;;;;;;;3.75;2.08;;;;;;;18.34;80.45;99591.13;6295527;28;20052;-74
2022/07/27 02:07:08;;;;;;;2.90;2.00;;;;;;;18.33;79.93;99586.84;6279086;28;20117;-74
2022/07/27 02:10:09;;;;;;;3.58;1.90;;;;;;;18.36;78.76;99590.97;6296731;28;20045;-71
2022/07/27 02:13:10;;;;;;;4.38;2.58;;;;;;;18.25;78.72;99584.97;6312322;28;20388;-74
2022/07/27 02:16:15;;;;;;;2.50;2.00;;;;;;;18.32;79.58;99593.94;6278760;28;20076;-74
2022/07/27 02:19:16;;;;;;;3.88;2.38;;;;;;;18.26;80.15;99588.44;6295222;28;20419;-71
2022/07/27 02:22:17;;;;;;;4.82;2.10;;;;;;;18.28;81.02;99591.75;6290847;28;20048;-71
2022/07/27 02:25:19;;;;;;;2.80;2.38;;;;;;;18.25;83.05;99594.72;6289861;28;20157;-71
2022/07/27 02:28:20;;;;;;;5.07;2.10;;;;;;;18.25;83.18;99597.34;6280921;28;20041;-74
2022/07/27 02:31:21;;;;;;;2.47;2.17;;;;;;;18.21;82.66;99590.72;6253223;28;20050;-70
2022/07/27 02:34:22;;;;;;;8.83;2.23;;;;;;;18.18;81.75;99586.59;6253212;28;20127;-70
2022/07/27 02:37:24;;;;;;;2.78;1.90;;;;;;;18.21;80.60;99593.34;6276335;28;20044;-71
2022/07/27 02:40:27;;;;;;;2.13;1.85;;;;;;;18.16;80.21;99592.97;6294707;28;20486;-72
2022/07/27 02:43:29;;;;;;;3.10;2.08;;;;;;;18.18;78.30;99591.00;6261937;28;20094;-71
2022/07/27 02:46:29;;;;;;;6.57;1.95;;;;;;;18.17;78.48;99595.47;6294416;28;20041;-71
2022/07/27 02:49:30;;;;;;;3.95;2.42;;;;;;;18.13;77.67;99596.75;6277762;28;20052;-71
2022/07/27 02:52:32;;;;;;;5.57;2.10;;;;;;;18.18;76.71;99605.06;6273367;28;20526;-72
2022/07/27 02:55:32;;;;;;;3.33;1.80;;;;;;;18.23;75.83;99599.31;6293231;28;20376;-74
2022/07/27 02:58:33;;;;;;;5.07;2.08;;;;;;;18.16;75.46;99598.25;6273522;28;20048;-71
2022/07/27 03:01:34;;;;;;;3.38;1.98;;;;;;;18.15;75.39;99602.72;6272839;28;20045;-71
2022/07/27 03:04:35;;;;;;;7.88;2.35;;;;;;;18.13;75.33;99609.97;6299705;28;20044;-73
2022/07/27 03:07:37;;;;;;;6.93;2.22;;;;;;;18.09;75.42;99613.88;6299642;28;20062;-74
2022/07/27 03:10:37;;;;;;;5.47;1.83;;;;;;;18.09;75.56;99609.44;6266259;28;20048;-70
2022/07/27 03:13:39;;;;;;;3.40;1.80;;;;;;;18.05;75.55;99620.44;6315308;28;20091;-71
2022/07/27 03:16:40;;;;;;;5.15;1.98;;;;;;;18.07;75.14;99619.31;6241748;28;20041;-70
2022/07/27 03:19:47;;;;;;;5.82;2.25;;;;;;;18.07;75.70;99616.66;6273966;28;20106;-71
2022/07/27 03:22:48;;;;;;;3.58;1.90;;;;;;;18.03;76.36;99617.97;6274451;28;20048;-74
2022/07/27 03:25:51;;;;;;;7.57;2.33;;;;;;;18.05;76.26;99620.44;6275546;28;20119;-71
2022/07/27 03:28:52;;;;;;;3.60;2.00;;;;;;;17.96;77.25;99629.28;6274411;28;20048;-74
2022/07/27 03:31:53;;;;;;;3.25;1.77;;;;;;;18.07;75.82;99634.31;6280693;28;20041;-74
2022/07/27 03:34:54;;;;;;;2.33;1.92;;;;;;;18.03;76.05;99628.50;6332786;28;20102;-74
2022/07/27 03:37:55;;;;;;;3.83;1.70;;;;;;;18.04;76.03;99629.38;6298195;28;20036;-71
2022/07/27 03:40:57;;;;;;;2.70;1.73;;;;;;;18.06;76.47;99622.13;6281717;28;20075;-74
2022/07/27 03:43:58;;;;;;;4.82;2.25;;;;;;;17.97;77.15;99630.94;6298911;28;20053;-74
2022/07/27 03:46:59;;;;;;;3.80;2.20;;;;;;;18.05;77.01;99644.22;6298806;28;20051;-74
2022/07/27 03:50:00;;;;;;;6.38;2.05;;;;;;;18.13;77.00;99633.72;6281858;28;20313;-75
2022/07/27 03:53:03;;;;;;;4.43;2.33;;;;;;;18.11;77.37;99627.75;6298145;28;20052;-74
2022/07/27 03:56:04;;;;;;;3.88;2.30;;;;;;;18.18;77.44;99625.34;6299846;28;20044;-71
2022/07/27 03:59:05;;;;;;;3.90;2.22;;;;;;;18.18;77.41;99633.25;6298621;28;20045;-70
2022/07/27 04:02:07;;;;;;;9.73;2.38;;;;;;;18.23;76.99;99629.19;6298428;28;20044;-71
2022/07/27 04:05:08;;;;;;;5.53;2.53;;;;;;;18.28;76.74;99636.63;6298364;28;20051;-74
2022/07/27 04:08:10;;;;;;;4.47;2.40;;;;;;;18.36;76.22;99647.25;6299626;28;20037;-70
2022/07/27 04:11:11;;;;;;;7.57;2.22;;;;;;;18.39;76.72;99646.13;6281313;28;20060;-74
2022/07/27 04:14:12;;;;;;;4.20;2.42;;;;;;;18.47;76.45;99654.09;6264724;28;20480;-74
2022/07/27 04:17:14;;;;;;;5.05;2.15;;;;;;;18.56;75.98;99655.84;6296568;28;20048;-75
2022/07/27 04:20:15;;;;;;;6.00;2.25;;;;;;;18.64;75.81;99658.53;6256472;28;20041;-71
2022/07/27 04:23:16;;;;;;;9.68;2.67;;;;;;;18.73;75.37;99660.22;6273517;28;20487;-71
2022/07/27 04:26:17;;;;;;;4.80;2.30;;;;;;;18.76;75.96;99669.69;6291728;28;20051;-71
2022/07/27 04:29:19;;;;;;;4.47;2.03;;;;;;;18.82;75.79;99669.09;6280834;28;20036;-71
2022/07/27 04:32:21;;;;;;;10.95;2.42;;;;;;;18.85;75.69;99676.69;6281500;28;20484;-71
2022/07/27 04:35:24;;;;;;;10.63;2.90;;;;;;;19.01;75.72;99672.50;6281213;28;20045;-74
2022/07/27 04:38:26;;;;;;;7.30;2.40;;;;;;;19.01;75.29;99680.44;6293385;28;20078;-74
2022/07/27 04:41:26;;;;;;;6.77;2.70;;;;;;;19.05;74.43;99679.13;6272708;28;20068;-70
2022/07/27 04:44:27;;;;;;;6.72;2.42;;;;;;;19.06;75.07;99678.13;6256076;28;20357;-74
2022/07/27 04:47:31;;;;;;;5.00;1.98;;;;;;;19.07;73.98;99682.44;6273163;28;20044;-73
2022/07/27 04:50:40;;;;;;;4.82;2.33;;;;;;;19.08;73.76;99670.88;6255731;28;20119;-70
2022/07/27 04:53:41;;;;;;;7.65;2.58;;;;;;;19.16;73.77;99684.13;6273015;28;20102;-74
2022/07/27 04:56:42;;;;;;;7.28;2.50;;;;;;;19.24;73.63;99683.34;6272824;28;20377;-74
2022/07/27 04:59:43;;;;;;;6.18;2.47;;;;;;;19.35;73.49;99684.88;6272712;28;20044;-74
2022/07/27 05:02:44;;;;;;;5.50;2.50;;;;;;;19.49;73.41;99681.63;6238241;28;20068;-70
2022/07/27 05:05:45;;;;;;;7.37;2.70;;;;;;;19.48;73.11;99679.97;6287474;28;20123;-74
2022/07/27 05:08:46;;;;;;;5.53;2.85;;;;;;;19.69;74.19;99675.06;6271386;28;20045;-74
2022/07/27 05:11:50;;;;;;;4.57;2.72;;;;;;;19.80;73.18;99676.59;6271131;28;20037;-74
2022/07/27 05:14:51;;;;;;;4.97;2.45;;;;;;;19.86;73.53;99683.06;6276699;28;20407;-71
2022/07/27 05:17:52;;;;;;;14.40;2.83;;;;;;;19.86;72.44;99683.91;6255679;28;20051;-70
2022/07/27 05:20:53;;;;;;;5.60;2.60;;;;;;;19.87;72.08;99682.91;6255380;28;20052;-70
2022/07/27 05:23:54;;;;;;;5.27;2.80;;;;;;;20.04;72.60;99680.31;6255174;28;20114;-75
2022/07/27 05:26:55;;;;;;;6.10;2.97;;;;;;;20.20;71.71;99682.97;6255429;28;20041;-73
2022/07/27 05:29:56;;;;;;;9.38;2.85;;;;;;;20.29;71.70;99681.13;6271752;28;20455;-74
2022/07/27 05:32:57;;;;;;;5.83;2.87;;;;;;;20.37;71.36;99689.09;6255066;28;20052;-74
2022/07/27 05:35:58;;;;;;;9.53;2.70;;;;;;;20.48;70.79;99686.09;6249512;28;20414;-74
2022/07/27 05:38:59;;;;;;;8.05;2.60;;;;;;;20.56;69.91;99687.09;6296023;28;20131;-74
2022/07/27 05:42:00;;;;;;;6.60;2.70;;;;;;;20.76;70.37;99696.38;6297505;28;20060;-74
2022/07/27 05:45:02;;;;;;;4.18;2.33;;;;;;;20.69;68.79;99687.44;6295692;28;20466;-75
2022/07/27 05:48:04;;;;;;;9.32;2.47;;;;;;;20.72;68.93;99700.34;6296996;28;20040;-71
2022/07/27 05:51:05;;;;;;;7.43;2.50;;;;;;;20.72;68.11;99697.72;6297029;28;20475;-70
2022/07/27 05:54:07;;;;;;;7.63;2.47;;;;;;;20.88;68.71;99699.50;6297296;28;20052;-71
2022/07/27 05:57:08;;;;;;;6.63;2.50;;;;;;;21.06;68.14;99707.25;6297168;28;20071;-70
2022/07/27 06:00:10;;;;;;;5.63;2.20;;;;;;;21.05;66.82;99703.75;6279139;28;20071;-74
2022/07/27 06:03:14;;;;;;;6.45;2.60;;;;;;;21.16;67.79;99705.22;6297031;28;20293;-70
2022/07/27 06:09:34;;;;;;;5.18;2.40;;;;;;;21.45;67.07;99702.00;6267247;28;20074;-70
2022/07/27 06:12:38;;;;;;;8.48;2.38;;;;;;;21.68;66.63;99711.84;6256190;28;20079;-70
2022/07/27 06:15:39;;;;;;;6.60;2.50;;;;;;;21.71;64.93;99707.00;6270851;28;20053;-70
2022/07/27 06:18:40;;;;;;;6.20;2.40;;;;;;;21.54;65.79;99721.38;6237741;28;20061;-70
2022/07/27 06:21:41;;;;;;;6.07;2.73;;;;;;;21.69;66.13;99708.19;6254116;28;20438;-71
2022/07/27 06:24:42;;;;;;;5.45;2.63;;;;;;;21.91;64.64;99722.53;6254133;28;20037;-72
2022/07/27 06:27:43;;;;;;;5.33;2.80;;;;;;;21.88;64.28;99715.72;6272047;28;20091;-72
2022/07/27 06:30:46;;;;;;;;;;;;;;;22.02;63.21;99715.97;6272312;28;20045;-77
2022/07/27 06:33:47;;;;;;;10.40;4.07;;;;;;;22.11;63.45;99717.56;6270624;28;19970;-74
2022/07/27 06:36:48;;;;;;;7.23;2.63;;;;;;;22.47;62.53;99709.84;6262417;28;20072;-70
2022/07/27 06:39:49;;;;;;;4.67;2.30;;;;;;;22.61;61.81;99708.25;6285164;28;20049;-71
2022/07/27 06:42:49;;;;;;;5.05;2.65;;;;;;;22.96;59.82;99711.22;6281904;28;20044;-76
2022/07/27 06:45:53;;;;;;;4.10;2.20;;;;;;;22.92;60.35;99710.75;6275915;28;20549;-75
2022/07/27 06:48:55;;;;;;;5.82;2.45;;;;;;;23.07;58.32;99726.75;6299655;28;20040;-70
2022/07/27 06:51:56;;;;;;;3.28;2.20;;;;;;;23.10;58.95;99722.91;6285744;28;20136;-71
2022/07/27 06:54:57;;;;;;;8.00;2.42;;;;;;;22.97;59.25;99718.19;6242383;28;20041;-71
2022/07/27 06:57:58;;;;;;;5.90;2.57;;;;;;;23.18;58.60;99714.81;6271825;28;20080;-71
2022/07/27 07:01:02;;;;;;;5.53;2.47;;;;;;;23.27;57.01;99707.59;6262504;28;20063;-76
2022/07/27 07:04:06;;;;;;;3.85;2.33;;;;;;;23.50;56.97;99712.81;6279501;28;20041;-75
2022/07/27 07:07:07;;;;;;;6.00;2.70;;;;;;;23.40;57.86;99710.41;6263753;28;20416;-75
2022/07/27 07:10:09;;;;;;;7.30;2.75;;;;;;;23.61;57.06;99709.66;6274828;28;20135;-70
2022/07/27 07:13:10;;;;;;;5.03;2.63;;;;;;;23.75;57.11;99718.63;6294608;28;20471;-70
2022/07/27 07:16:15;;;;;;;7.60;2.75;;;;;;;24.03;57.45;99723.25;6301145;28;20441;-71
2022/07/27 07:19:16;;;;;;;8.18;2.67;;;;;;;23.86;55.90;99734.13;6300747;28;20117;-75
2022/07/27 07:22:17;;;;;;;5.18;2.65;;;;;;;24.28;55.24;99734.38;6299445;28;20044;-69
2022/07/27 07:25:19;;;;;;;7.33;2.90;;;;;;;24.18;55.81;99732.03;6280033;28;20495;-70
2022/07/27 07:28:21;;;;;;;4.32;2.45;;;;;;;24.36;54.93;99730.75;6275569;28;20363;-69
2022/07/27 07:31:22;;;;;;;5.38;2.60;;;;;;;24.41;53.39;99725.69;6274244;28;20224;-70
2022/07/27 07:34:23;;;;;;;8.15;2.60;;;;;;;24.40;55.11;99734.69;6274328;28;20099;-70
2022/07/27 07:37:24;;;;;;;5.83;2.40;;;;;;;24.61;53.01;99724.03;6274347;28;20045;-72
2022/07/27 07:40:25;;;;;;;8.07;2.67;;;;;;;24.92;56.52;99731.66;6288059;28;20139;-72
2022/07/27 07:43:27;;;;;;;5.13;2.80;;;;;;;24.75;53.71;99732.97;6298769;28;20297;-72
2022/07/27 07:46:28;;;;;;;8.00;3.00;;;;;;;25.25;51.89;99740.94;6297550;28;20044;-72
2022/07/27 07:49:29;;;;;;;5.20;2.65;;;;;;;25.17;50.63;99723.19;6265445;28;20048;-73
2022/07/27 07:52:30;;;;;;;5.38;2.70;;;;;;;25.25;53.40;99730.25;6332223;28;20128;-69
2022/07/27 07:55:33;;;;;;;6.10;2.75;;;;;;;25.34;53.22;99729.06;6300067;28;20506;-69
2022/07/27 07:58:34;;;;;;;5.70;2.65;;;;;;;25.71;50.15;99730.44;6282620;28;20044;-72
2022/07/27 08:01:35;;;;;;;6.17;2.53;;;;;;;25.91;49.01;99737.75;6292953;28;20114;-70
2022/07/27 08:04:36;;;;;;;8.10;2.45;;;;;;;25.81;48.09;99732.75;6283600;28;20503;-69
2022/07/27 08:07:37;;;;;;;5.23;2.40;;;;;;;26.03;48.86;99733.47;6273763;28;20048;-70
2022/07/27 08:10:38;;;;;;;4.40;2.47;;;;;;;26.24;46.60;99745.00;6276900;28;20052;-70
2022/07/27 08:13:40;;;;;;;6.50;2.75;;;;;;;26.29;45.92;99742.53;6272468;28;20045;-73
2022/07/27 08:16:40;;;;;;;5.97;2.60;;;;;;;26.30;45.49;99738.84;6272416;28;20044;-71
2022/07/27 08:19:41;;;;;;;5.70;2.47;;;;;;;26.37;47.66;99737.00;6300563;28;20039;-72
2022/07/27 08:22:46;;;;;;;7.95;2.50;;;;;;;26.69;47.01;99737.25;6280414;28;20877;-72
2022/07/27 08:25:47;;;;;;;6.50;3.00;;;;;;;26.04;48.28;99742.28;6287512;28;20397;-72
2022/07/27 08:28:48;;;;;;;6.10;2.72;;;;;;;26.28;46.21;99752.41;6274019;28;20041;-72
2022/07/27 08:31:49;;;;;;;10.60;2.88;;;;;;;26.34;46.02;99746.25;6283624;28;20055;-72
2022/07/27 08:34:53;;;;;;;6.83;2.67;;;;;;;26.24;45.39;99748.50;6258098;28;20067;-72
2022/07/27 08:37:54;;;;;;;4.45;2.60;;;;;;;26.58;45.63;99746.69;6287606;28;20329;-70
2022/07/27 08:41:00;;;;;;;8.35;2.38;;;;;;;26.51;44.84;99737.84;6273447;28;20060;-70
2022/07/27 08:44:02;;;;;;;4.13;2.88;;;;;;;26.95;45.41;99739.06;6286298;28;20515;-70
2022/07/27 08:47:04;;;;;;;6.60;2.90;;;;;;;27.24;44.87;99740.50;6271223;28;20090;-70
2022/07/27 08:50:24;;;;;;;;;;;;;;;27.31;44.65;99743.97;6254133;28;20140;-72
2022/07/27 08:53:29;;;;;;;5.65;2.92;;;;;;;27.11;43.88;99740.50;6271383;28;20322;-72
2022/07/27 08:56:31;;;;;;;5.95;2.95;;;;;;;27.55;42.89;99749.69;6270273;28;20048;-72
2022/07/27 08:59:34;;;;;;;12.25;2.78;;;;;;;27.96;42.22;99745.78;6237764;28;20461;-70
2022/07/27 09:02:36;;;;;;;5.38;2.70;;;;;;;27.85;42.22;99755.28;6287925;28;20559;-72
2022/07/27 09:05:42;;;;;;;4.88;2.65;;;;;;;27.91;43.77;99745.63;6254762;28;20040;-72
2022/07/27 09:08:57;;;;;;;6.93;2.58;;;;;;;28.33;41.37;99746.81;6270895;28;20045;-70
2022/07/27 09:12:09;;;;;;;3.45;2.17;;;;;;;27.82;40.42;99744.16;6287264;28;20144;-70
2022/07/27 09:15:14;;;;;;;4.65;2.40;;;;;;;27.99;40.81;99744.56;6270699;28;20052;-70
2022/07/27 09:18:21;;;;;;;6.68;2.67;;;;;;;28.34;39.56;99745.75;6270901;28;20048;-70
2022/07/27 09:21:23;;;;;;;6.25;2.80;;;;;;;28.82;39.93;99740.84;6271795;28;20047;-73
2022/07/27 09:24:26;;;;;;;9.60;2.55;;;;;;;29.01;38.81;99741.69;6271780;28;20041;-70
2022/07/27 09:27:30;;;;;;;6.28;2.72;;;;;;;28.78;41.15;99743.16;6254414;28;20049;-71
2022/07/27 09:30:41;;;;;;;5.30;2.50;;;;;;;28.35;38.50;99741.19;6237340;28;20424;-71
2022/07/27 09:33:48;;;;;;;4.40;1.80;;;;;;;28.28;37.81;99751.97;6270226;28;20046;-73
2022/07/27 09:36:51;;;;;;;4.85;3.13;;;;;;;28.98;38.15;99755.59;6270347;28;20510;-74
2022/07/27 09:40:12;;;;;;;5.28;1.98;;;;;;;28.12;38.75;99752.50;6270193;28;20049;-71
2022/07/27 09:43:13;;;;;;;3.53;2.13;;;;;;;28.36;38.27;99752.78;6253385;28;20491;-71
2022/07/27 09:46:15;;;;;;;6.32;2.20;;;;;;;28.79;38.27;99752.06;6220953;28;20495;-69
2022/07/27 09:49:29;;;;;;;5.72;2.53;;;;;;;29.30;36.68;99749.09;6269977;28;20503;-72
2022/07/27 09:52:31;;;;;;;4.57;2.17;;;;;;;29.13;37.13;99745.31;6303280;28;20123;-72
2022/07/27 09:55:31;;;;;;;;;;;;;;;29.26;38.42;99738.97;6237925;28;20037;-69
2022/07/27 09:58:43;;;;;;;10.63;2.57;;;;;;;28.62;36.87;99725.78;6269912;28;20421;-69
2022/07/27 10:01:44;;;;;;;6.45;2.13;;;;;;;29.22;37.31;99727.88;6270032;28;20077;-70
2022/07/27 10:04:46;;;;;;;8.35;2.70;;;;;;;29.18;36.17;99731.22;6269802;28;20094;-70
2022/07/27 10:07:48;;;;;;;8.65;2.55;;;;;;;30.09;35.83;99740.25;6253082;28;20052;-70
2022/07/27 10:10:49;;;;;;;5.93;2.70;;;;;;;29.87;37.41;99750.69;6270314;28;20040;-70
2022/07/27 10:13:51;;;;;;;8.30;2.00;;;;;;;30.01;35.32;99745.94;6269464;28;20052;-70
2022/07/27 10:16:53;;;;;;;5.63;2.30;;;;;;;29.19;37.81;99736.38;6269737;28;20559;-70
2022/07/27 10:19:55;;;;;;;4.88;1.90;;;;;;;29.31;33.95;99744.53;6270748;28;20423;-70
2022/07/27 10:22:57;;;;;;;10.00;2.40;;;;;;;29.22;35.38;99745.84;6252965;28;20055;-73
2022/07/27 10:26:26;;;;;;;4.20;1.83;;;;;;;29.87;33.92;99745.31;6236725;28;20056;-73
2022/07/27 10:29:27;;;;;;;5.57;2.10;;;;;;;29.93;33.72;99739.03;6269585;28;20072;-73
2022/07/27 10:32:30;;;;;;;2.08;1.67;;;;;;;29.77;32.76;99736.97;6269430;28;20037;-69
2022/07/27 10:35:33;;;;;;;5.43;1.92;;;;;;;29.88;33.18;99734.34;6270762;28;20037;-72
2022/07/27 10:38:49;;;;;;;6.95;1.83;;;;;;;29.57;33.72;99723.75;6252820;28;20139;-73
2022/07/27 10:41:50;;;;;;;7.65;1.92;;;;;;;30.29;33.81;99731.84;6270825;28;20545;-69
2022/07/27 10:45:01;;;;;;;4.20;1.63;;;;;;;30.83;31.40;99723.78;6286137;28;20503;-70
2022/07/27 10:48:05;;;;;;;4.20;2.08;;;;;;;30.32;33.22;99734.13;6270667;28;20041;-74
2022/07/27 10:51:07;;;;;;;4.85;1.90;;;;;;;30.30;33.59;99728.97;6269229;28;20057;-70
2022/07/27 10:54:25;;;;;;;3.60;1.85;;;;;;;30.70;32.23;99730.19;6269388;28;20041;-73
2022/07/27 10:57:26;;;;;;;5.45;1.88;;;;;;;31.21;30.79;99723.28;6269160;28;20500;-73
2022/07/27 11:00:50;;;;;;;3.40;1.70;;;;;;;30.53;33.06;99722.00;6252848;28;20125;-71
2022/07/27 11:03:52;;;;;;;5.93;1.73;;;;;;;30.60;32.39;99722.72;6269806;28;20088;-70
2022/07/27 11:06:59;;;;;;;;;;;;;;;30.84;32.26;99717.31;6253347;28;20488;-71
2022/07/27 11:10:00;;;;;;;2.95;1.65;;;;;;;31.24;31.91;99720.13;6285856;28;20007;-70
2022/07/27 11:13:02;;;;;;;3.05;1.55;;;;;;;31.62;28.73;99721.44;6268836;28;20082;-74
2022/07/27 11:16:15;;;;;;;3.72;1.60;;;;;;;31.11;29.50;99729.28;6270283;28;20033;-70
2022/07/27 11:19:16;;;;;;;2.38;1.02;;;;;;;30.92;27.27;99720.50;6270265;28;20115;-71
2022/07/27 11:22:27;;;;;;;;;;;;;;;30.30;27.72;99714.72;6305461;28;20111;-73
2022/07/27 11:25:28;;;;;;;4.68;1.38;;;;;;;31.24;28.63;99709.34;6275084;28;19921;-70
2022/07/27 11:28:32;;;;;;;4.78;1.10;;;;;;;31.12;27.94;99719.31;6257079;28;20454;-70
2022/07/27 11:31:34;;;;;;;7.50;1.35;;;;;;;31.03;28.61;99709.94;6274592;28;20047;-70
2022/07/27 11:34:35;;;;;;;5.03;1.15;;;;;;;31.33;28.59;99707.09;6274552;28;20115;-71
2022/07/27 11:37:36;;;;;;;4.45;1.45;;;;;;;31.58;27.32;99712.19;6273180;28;20047;-74
2022/07/27 11:40:45;;;;;;;3.08;1.20;;;;;;;31.47;26.27;99700.38;6289775;28;20053;-74
2022/07/27 11:43:46;;;;;;;4.47;1.20;;;;;;;31.82;26.74;99707.53;6272935;28;20068;-70
2022/07/27 11:46:49;;;;;;;2.90;0.90;;;;;;;31.06;28.96;99706.78;6256554;28;20067;-74
2022/07/27 11:49:50;;;;;;;1.88;1.10;;;;;;;31.28;28.19;99701.59;6277333;28;20032;-74
2022/07/27 11:52:56;;;;;;;5.65;1.35;;;;;;;31.70;28.04;99696.78;6296969;28;20060;-74
2022/07/27 11:55:57;;;;;;;1.15;0.95;;;;;;;31.07;27.28;99705.72;6297507;28;20052;-74
2022/07/27 11:59:13;;;;;;;1.45;1.13;;;;;;;30.98;26.92;99689.09;6264362;28;20082;-73
2022/07/27 12:02:18;;;;;;;3.17;1.10;;;;;;;31.25;27.53;99702.88;6298739;28;20068;-74
2022/07/27 12:05:19;;;;;;;3.97;1.13;;;;;;;30.76;27.87;99696.13;6297444;28;20047;-74
2022/07/27 12:08:20;;;;;;;6.35;1.30;;;;;;;30.45;29.28;99712.38;6263959;28;20041;-74
2022/07/27 12:11:58;;;;;;;2.80;1.15;;;;;;;30.46;28.76;99702.44;6298551;28;20048;-70
2022/07/27 12:15:13;;;;;;;4.45;1.50;;;;;;;30.73;28.28;99692.03;6297658;28;20126;-70
2022/07/27 12:18:16;;;;;;;2.35;1.30;;;;;;;30.73;30.52;99687.47;6297228;28;20089;-73
2022/07/27 12:21:18;;;;;;;4.15;1.27;;;;;;;30.34;28.82;99699.75;6247826;28;20044;-74
2022/07/27 12:24:29;;;;;;;5.93;1.40;;;;;;;30.64;29.08;99693.44;6280314;28;20055;-70
2022/07/27 12:27:30;;;;;;;5.72;1.42;;;;;;;30.20;29.76;99688.31;6298156;28;20086;-70
2022/07/27 12:30:34;;;;;;;6.05;1.17;;;;;;;30.76;29.96;99685.34;6298241;28;20044;-73
2022/07/27 12:33:36;;;;;;;2.67;1.27;;;;;;;30.64;29.40;99688.03;6297275;28;20113;-73
2022/07/27 12:36:40;;;;;;;5.18;1.10;;;;;;;30.24;29.01;99694.06;6279984;28;20057;-70
2022/07/27 12:39:43;;;;;;;3.17;1.27;;;;;;;30.76;28.36;99696.13;6296492;28;20053;-70
2022/07/27 12:42:45;;;;;;;3.20;1.30;;;;;;;30.58;29.44;99691.66;6279801;28;20060;-70
2022/07/27 12:45:48;;;;;;;2.85;1.30;;;;;;;30.61;28.76;99691.22;6296729;28;20044;-70
2022/07/27 12:48:51;;;;;;;4.78;1.17;;;;;;;31.03;27.50;99685.69;6297800;28;20128;-73
2022/07/27 12:52:03;;;;;;;4.40;1.30;;;;;;;30.89;28.30;99677.06;6247219;28;20063;-73
2022/07/27 12:55:05;;;;;;;2.67;1.10;;;;;;;30.27;29.03;99683.69;6297451;28;20045;-70
2022/07/27 12:58:12;;;;;;;1.75;1.15;;;;;;;30.86;29.50;99677.50;6279752;28;20129;-73
2022/07/27 13:01:14;;;;;;;1.90;1.13;;;;;;;30.85;28.46;99662.41;6297266;28;20403;-70
2022/07/27 13:04:15;;;;;;;5.47;1.50;;;;;;;30.78;29.09;99662.50;6262994;28;20040;-72
2022/07/27 13:07:18;;;;;;;5.63;1.60;;;;;;;30.55;30.53;99666.03;6279358;28;20048;-70
2022/07/27 13:10:19;;;;;;;2.10;1.13;;;;;;;30.83;29.15;99661.84;6279306;28;20418;-70
2022/07/27 13:13:23;;;;;;;9.73;1.67;;;;;;;30.52;30.24;99653.06;6295774;28;20099;-70
2022/07/27 13:16:24;;;;;;;6.88;1.38;;;;;;;30.60;30.26;99663.47;6279019;28;20052;-70
2022/07/27 13:19:24;;;;;;;3.80;1.48;;;;;;;30.27;30.22;99677.44;6279114;28;20453;-73
2022/07/27 13:22:25;;;;;;;3.63;1.50;;;;;;;30.58;31.63;99664.75;6278847;28;20045;-70
2022/07/27 13:25:29;;;;;;;;;;;;;;;30.33;29.82;99674.72;6296014;28;20040;-73
2022/07/27 13:28:30;;;;;;;4.13;1.60;;;;;;;30.00;31.17;99669.84;6278868;28;19921;-72
2022/07/27 13:31:32;;;;;;;8.05;1.60;;;;;;;30.02;31.17;99665.03;6295315;28;20174;-73
2022/07/27 13:34:33;;;;;;;6.03;1.50;;;;;;;29.75;30.16;99666.47;6295302;28;20128;-70
2022/07/27 13:37:34;;;;;;;1.88;1.45;;;;;;;29.59;29.95;99675.94;6278705;28;20126;-73
2022/07/27 13:40:34;;;;;;;;;;;;;;;29.52;31.18;99658.06;6296856;28;20040;-70
2022/07/27 13:43:35;;;;;;;2.80;1.20;;;;;;;29.11;30.99;99664.16;6296370;28;20029;-70
2022/07/27 13:46:37;;;;;;;1.55;1.20;;;;;;;28.84;31.78;99651.00;6294207;28;20055;-72
2022/07/27 13:49:38;;;;;;;5.25;1.45;;;;;;;29.17;30.65;99646.31;6278623;28;20063;-72
2022/07/27 13:52:39;;;;;;;3.03;1.27;;;;;;;29.33;30.93;99646.53;6278427;28;20079;-73
2022/07/27 13:55:40;;;;;;;3.85;1.30;;;;;;;29.52;31.15;99639.22;6278393;28;20510;-73
2022/07/27 13:58:41;;;;;;;3.53;1.63;;;;;;;29.21;32.72;99642.13;6294905;28;20048;-70
2022/07/27 14:01:42;;;;;;;1.60;1.10;;;;;;;29.05;31.52;99643.53;6294931;28;20041;-69
2022/07/27 14:04:46;;;;;;;2.70;1.27;;;;;;;28.82;29.87;99636.97;6294844;28;20487;-69
2022/07/27 14:07:47;;;;;;;3.83;1.50;;;;;;;28.87;30.63;99631.75;6277999;28;20136;-70
2022/07/27 14:10:51;;;;;;;5.00;1.30;;;;;;;29.00;30.64;99633.47;6278481;28;20060;-72
2022/07/27 14:13:52;;;;;;;3.08;1.30;;;;;;;29.10;29.85;99625.75;6295886;28;20046;-72
2022/07/27 14:16:53;;;;;;;3.20;1.30;;;;;;;29.49;30.78;99625.47;6311521;28;20053;-70
2022/07/27 14:19:54;;;;;;;4.88;1.30;;;;;;;29.57;30.52;99622.44;6294931;28;20044;-70
2022/07/27 14:22:54;;;;;;;4.30;1.15;;;;;;;29.29;29.94;99629.22;6277783;28;20131;-70
2022/07/27 14:25:57;;;;;;;3.13;1.40;;;;;;;29.21;31.24;99617.97;6294665;28;20059;-73
2022/07/27 14:28:58;;;;;;;1.33;1.10;;;;;;;29.44;29.64;99615.38;6294602;28;20044;-73